Create Tblcommutelog Verified Points Advance Search
| # | Trip ID | Id Commuter | Trip Date | Trip Num | Current Lat | Current Lng | Delta Distance | Current Time | Activity | Activity Confidence | Current Speed | |
|---|---|---|---|---|---|---|---|---|---|---|---|---|
| 70861 | 251119_788624_16458763_0725 | 788624 | (not set) | (not set) | 38.710161724313 | -77.219475681327 | 3.8168 | 2025-11-19 07:29:49 | in_vehicle | 100 | 11.685606229939 | |
| 70862 | 251119_789265_16464305_0643 | 789265 | (not set) | (not set) | 38.887648622191 | -77.005291758799 | 13.4246 | 2025-11-19 07:29:49 | in_vehicle | 100 | 0 | |
| 70863 | 251119_774226_16511083_0723 | 774226 | (not set) | (not set) | 38.908155741161 | -77.024015646966 | 1.2619 | 2025-11-19 07:29:50 | in_vehicle | 100 | 3.9875901901705 | |
| 70864 | 251119_789732_16516120_0713 | 789732 | (not set) | (not set) | 38.897063512386 | -77.175426349087 | 3.5982 | 2025-11-19 07:29:42 | in_vehicle | 100 | 8.1361145135766 | |
| 70865 | 251119_783195_16513328_0729 | 783195 | (not set) | (not set) | 38.9134921 | -77.02211 | 0 | 2025-11-19 07:29:45 | in_vehicle | 100 | -0.44703925898772 | |
| 70866 | 251119_789706_16507319_0650 | 789706 | (not set) | (not set) | 38.90129304394 | -77.041411024267 | 10.9645 | 2025-11-19 07:29:50 | in_vehicle | 100 | -0.44703925898772 | |
| 70867 | 251119_789706_16507319_0650 | 789706 | (not set) | (not set) | 38.90129304394 | -77.041411024267 | 10.9645 | 2025-11-19 07:29:50 | in_vehicle | 100 | -0.44703925898772 | |
| 70868 | 251119_781457_16513328_0700 | 781457 | (not set) | (not set) | 38.863284484277 | -77.338443839299 | 7.863 | 2025-11-19 07:29:51 | in_vehicle | 100 | 12.315931585112 | |
| 70869 | 251119_784917_16428364_0630 | 784917 | (not set) | (not set) | 38.946714854255 | -77.296355743009 | 26.982 | 2025-11-19 07:29:51 | in_vehicle | 100 | 15.056282242707 | |
| 70870 | 251119_784917_16428364_0630 | 784917 | (not set) | (not set) | 38.946714854255 | -77.296355743009 | 26.982 | 2025-11-19 07:29:51 | in_vehicle | 100 | 15.056282242707 | |
| 70871 | 251119_731669_16507744_0654 | 731669 | (not set) | (not set) | 38.750167681016 | -77.473920199614 | 8.6785 | 2025-11-19 07:29:51 | in_vehicle | 100 | 2.9415183241392 | |
| 70872 | 251119_784252_16652453_0705 | 784252 | (not set) | (not set) | 39.37405138427 | -77.226957457363 | 15.6231 | 2025-11-19 07:29:53 | in_vehicle | 100 | 16.151528427226 | |
| 70873 | 251119_766012_6442693_0726 | 766012 | (not set) | (not set) | 38.72887334374 | -77.126007520168 | 0.8045 | 2025-11-19 07:29:53 | in_vehicle | 100 | 8.2210519727842 | |
| 70874 | 251119_788222_16468806_0713 | 788222 | (not set) | (not set) | 38.801358572219 | -77.519632556796 | 7.7772 | 2025-11-19 07:29:54 | unknown | 100 | 2.329074539326 | |
| 70875 | 251119_787783_6461772_0700 | 787783 | (not set) | (not set) | 38.890174142831 | -77.050441108684 | 22.0493 | 2025-11-19 07:29:55 | in_vehicle | 100 | 0.1966972739546 | |
| 70876 | 251119_770658_6426227_0729 | 770658 | (not set) | (not set) | 38.915246613873 | -77.118830026601 | 0.4168 | 2025-11-19 07:29:55 | in_vehicle | 100 | 5.9545629297165 | |
| 70877 | 251119_770658_6426227_0729 | 770658 | (not set) | (not set) | 38.915246613873 | -77.118830026601 | 0.4168 | 2025-11-19 07:29:55 | in_vehicle | 100 | 5.9545629297165 | |
| 70878 | 251119_764454_16507126_0638 | 764454 | (not set) | (not set) | 38.962119902585 | -77.422464274211 | 10.8061 | 2025-11-19 07:29:56 | in_vehicle | 100 | 8.8424365427772 | |
| 70879 | 251119_785230_16490874_0705 | 785230 | (not set) | (not set) | 38.842891737217 | -76.930493749181 | 11.7356 | 2025-11-19 07:29:56 | in_vehicle | 100 | 0 | |
| 70880 | 251119_789732_16516120_0713 | 789732 | (not set) | (not set) | 38.896135280951 | -77.172776013841 | 3.7548 | 2025-11-19 07:29:52 | in_vehicle | 100 | 11.430793852316 |